Time;durP1;ratioP1;P1;durP2;ratioP2;P2;SDS_P1;SDS_P2;PMS_P1;PMS_P2;Temp;Humidity;BMP_temperature;BMP_pressure;BME280_temperature;BME280_humidity;BME280_pressure;Samples;Min_cycle;Max_cycle;Signal;HPM_P1;HPM_P2
2023/03/19 00:02:49;;;;;;;;;;;;;;;;;;;;;
2023/03/19 00:05:18;;;;;;;5.30;3.23;;;12.70;99.90;;;;;;5025413;28;20457;-86
2023/03/19 00:15:02;;;;;;;;;;;;;;;;;;;;;
2023/03/19 00:17:33;;;;;;;4.83;3.43;;;12.50;99.90;;;;;;5023951;28;20446;-85
2023/03/19 00:20:26;;;;;;;7.67;4.53;;;12.50;99.90;;;;;;5021620;28;20466;-88
2023/03/19 00:49:56;;;;;;;4.93;3.60;;;12.10;99.90;;;;;;5009494;28;20465;-83
2023/03/19 01:05:33;;;;;;;3.97;2.70;;;12.10;99.90;;;;;;5010119;28;20727;-84
2023/03/19 01:08:50;;;;;;;;;;;;;;;;;;;;;
2023/03/19 01:18:10;;;;;;;3.87;2.80;;;12.10;99.90;;;;;;5015007;28;20444;-83
2023/03/19 01:27:21;;;;;;;2.60;2.40;;;12.00;99.90;;;;;;4998676;28;21110;-83
2023/03/19 01:36:32;;;;;;;2.70;2.50;;;12.00;99.90;;;;;;5015136;28;20437;-84
2023/03/19 01:46:32;;;;;;;5.33;3.50;;;12.00;99.90;;;;;;4987718;28;20445;-84
2023/03/19 01:49:17;;;;;;;;;;;;;;;;;;;;;
2023/03/19 01:54:56;;;;;;;12.73;3.93;;;12.10;99.90;;;;;;5008567;28;20427;-83
2023/03/19 01:58:02;;;;;;;4.67;3.43;;;12.10;91.00;;;;;;5023012;28;20414;-84
2023/03/19 02:06:47;;;;;;;7.13;3.60;;;12.10;1.00;;;;;;5014647;28;20438;-84
2023/03/19 02:13:00;;;;;;;7.20;3.80;;;12.10;1.00;;;;;;4998160;28;20443;-83
2023/03/19 02:15:58;;;;;;;6.27;3.73;;;12.10;1.00;;;;;;5016532;28;20481;-84
2023/03/19 02:19:07;;;;;;;5.40;4.20;;;12.10;1.00;;;;;;5029986;28;20516;-84
2023/03/19 02:25:45;;;;;;;;;;;;;;;;;;;;;
2023/03/19 02:28:29;;;;;;;;;;;;;;;;;;;;;
2023/03/19 02:41:00;;;;;;;6.23;4.03;;;12.00;1.00;;;;;;5017004;28;20930;-83
2023/03/19 02:43:34;;;;;;;8.30;3.93;;;12.00;1.00;;;;;;5029366;28;20429;-84
2023/03/19 02:46:03;;;;;;;4.20;3.80;;;12.00;1.00;;;;;;5029420;28;20426;-85
2023/03/19 02:48:37;;;;;;;4.30;3.30;;;12.00;99.90;;;;;;5024276;28;20537;-84
2023/03/19 02:51:03;;;;;;;4.87;3.30;;;12.00;99.90;;;;;;5011458;28;20446;-84
2023/03/19 02:53:29;;;;;;;4.80;2.97;;;12.00;99.90;;;;;;5022891;28;20435;-84
2023/03/19 02:55:54;;;;;;;5.00;3.03;;;12.00;99.90;;;;;;5021178;28;20564;-83
2023/03/19 02:58:22;;;;;;;3.97;2.90;;;12.00;99.90;;;;;;5026702;28;20186;-83
2023/03/19 03:13:48;;;;;;;;;;;;;;;;;;;;;
2023/03/19 03:26:06;;;;;;;;;;;;;;;;;;;;;
2023/03/19 03:28:40;;;;;;;5.20;3.30;;;11.80;1.00;;;;;;5026337;28;20998;-86
2023/03/19 03:31:05;;;;;;;4.60;3.47;;;11.90;1.00;;;;;;5026201;28;20461;-84
2023/03/19 03:33:33;;;;;;;4.20;2.83;;;11.90;1.00;;;;;;5021380;28;20435;-85
2023/03/19 03:35:59;;;;;;;5.07;2.97;;;12.00;1.00;;;;;;5026447;28;20210;-84
2023/03/19 03:38:34;;;;;;;5.33;2.90;;;12.00;1.00;;;;;;5003760;28;20461;-85
2023/03/19 03:41:12;;;;;;;4.20;2.87;;;12.00;1.00;;;;;;5018375;28;20214;-86
2023/03/19 03:43:38;;;;;;;5.30;3.07;;;12.00;99.90;;;;;;5010212;28;20441;-86
2023/03/19 03:46:39;;;;;;;;;;;;;;;;;;;;;
2023/03/19 03:49:37;;;;;;;5.53;3.63;;;12.10;99.90;;;;;;5019419;28;20477;-85
2023/03/19 03:53:03;;;;;;;5.50;3.33;;;12.10;99.90;;;;;;5026144;28;20488;-85
2023/03/19 03:56:11;;;;;;;;;;;;;;;;;;;;;
2023/03/19 03:58:57;;;;;;;3.87;3.10;;;12.00;99.90;;;;;;5024755;28;20473;-84
2023/03/19 04:20:40;;;;;;;3.77;3.07;;;12.10;99.90;;;;;;5014375;28;20470;-87
2023/03/19 04:23:32;;;;;;;;;;;;;;;;;;;;;
2023/03/19 04:27:00;;;;;;;;;;;;;;;;;;;;;
2023/03/19 04:38:53;;;;;;;;;;;;;;;;;;;;;
2023/03/19 04:42:08;;;;;;;5.13;3.93;;;12.00;99.90;;;;;;5020387;28;20485;-86
2023/03/19 04:47:48;;;;;;;;;;;;;;;;;;;;;
2023/03/19 04:50:47;;;;;;;5.70;3.60;;;12.00;1.00;;;;;;5023016;28;20444;-86
2023/03/19 04:53:53;;;;;;;3.60;3.27;;;12.00;85.50;;;;;;5021428;28;20529;-83
2023/03/19 04:57:04;;;;;;;4.60;3.90;;;12.00;99.90;;;;;;5010129;28;20964;-84
2023/03/19 04:59:39;;;;;;;7.83;3.80;;;12.00;99.90;;;;;;5022516;28;20473;-86
2023/03/19 05:09:16;;;;;;;;;;;;;;;;;;;;;
2023/03/19 05:12:41;;;;;;;;;;;;;;;;;;;;;
2023/03/19 05:15:33;;;;;;;4.27;3.87;;;12.00;99.90;;;;;;5023014;28;20453;-84
2023/03/19 05:18:07;;;;;;;6.60;4.97;;;12.00;99.90;;;;;;5024527;28;20426;-85
2023/03/19 05:21:32;;;;;;;;;;;;;;;;;;;;;
2023/03/19 05:24:45;;;;;;;;;;;;;;;;;;;;;
2023/03/19 05:28:01;;;;;;;;;;;;;;;;;;;;;
2023/03/19 05:31:14;;;;;;;;;;;;;;;;;;;;;
2023/03/19 05:34:10;;;;;;;;;;;;;;;;;;;;;
2023/03/19 05:36:55;;;;;;;;;;;;;;;;;;;;;
2023/03/19 05:39:41;;;;;;;5.57;4.73;;;12.00;1.00;;;;;;5027873;28;20476;-85
2023/03/19 05:42:11;;;;;;;7.20;4.60;;;12.00;1.00;;;;;;5011499;28;20469;-85
2023/03/19 05:55:00;;;;;;;5.80;4.60;;;12.10;1.00;;;;;;5021958;28;20458;-84
2023/03/19 05:57:53;;;;;;;6.47;5.03;;;12.10;1.00;;;;;;5026543;28;20445;-87
2023/03/19 06:00:22;;;;;;;5.97;4.60;;;12.10;1.00;;;;;;4991269;28;20496;-85
2023/03/19 06:02:50;;;;;;;6.93;5.20;;;12.10;1.00;;;;;;5026779;28;20475;-86
2023/03/19 06:06:14;;;;;;;;;;;;;;;;;;;;;
2023/03/19 06:12:22;;;;;;;5.40;4.40;;;12.10;1.00;;;;;;5014670;28;20500;-85
2023/03/19 06:18:31;;;;;;;;;;;;;;;;;;;;;
2023/03/19 06:21:28;;;;;;;5.57;5.07;;;12.20;1.00;;;;;;5020624;28;20529;-83
2023/03/19 06:24:41;;;;;;;;;;;;;;;;;;;;;
2023/03/19 06:30:56;;;;;;;6.33;4.43;;;12.30;1.00;;;;;;5016740;28;20434;-85
2023/03/19 06:40:20;;;;;;;7.43;4.70;;;12.40;1.00;;;;;;5030924;28;20437;-84
2023/03/19 06:46:03;;;;;;;5.73;5.07;;;12.50;1.00;;;;;;5010808;28;20558;-84
2023/03/19 06:55:21;;;;;;;;;;;;;;;;;;;;;
2023/03/19 06:58:13;;;;;;;6.00;5.40;;;13.60;57.90;;;;;;5017769;28;20497;-85
2023/03/19 07:01:08;;;;;;;;;;;;;;;;;;;;;
2023/03/19 07:10:39;;;;;;;;;;;;;;;;;;;;;
2023/03/19 07:13:56;;;;;;;;;;;;;;;;;;;;;
2023/03/19 07:23:22;;;;;;;;;;;;;;;;;;;;;
2023/03/19 07:32:42;;;;;;;5.20;4.17;;;18.20;1.00;;;;;;5017327;28;20464;-85
2023/03/19 07:35:09;;;;;;;5.20;4.33;;;17.90;1.00;;;;;;4988539;28;20441;-83
2023/03/19 07:44:11;;;;;;;5.23;4.53;;;17.60;1.00;;;;;;5022228;28;20487;-85
2023/03/19 07:54:23;;;;;;;;;;;;;;;;;;;;;
2023/03/19 08:01:05;;;;;;;;;;;;;;;;;;;;;
2023/03/19 08:03:47;;;;;;;;;;;;;;;;;;;;;
2023/03/19 08:06:23;;;;;;;;;;;;;;;;;;;;;
2023/03/19 08:19:27;;;;;;;;;;;;;;;;;;;;;
2023/03/19 08:25:55;;;;;;;;;;;;;;;;;;;;;
2023/03/19 08:29:03;;;;;;;4.23;3.07;;;31.60;99.90;;;;;;5021092;28;20502;-86
2023/03/19 08:31:51;;;;;;;4.20;3.00;;;33.40;99.90;;;;;;4993103;28;20505;-86
2023/03/19 08:45:31;;;;;;;2.70;2.50;;;39.10;99.90;;;;;;5010075;28;20457;-85
2023/03/19 08:48:27;;;;;;;2.87;2.37;;;38.80;99.90;;;;;;5018901;28;20472;-85
2023/03/19 08:51:31;;;;;;;;;;;;;;;;;;;;;
2023/03/19 08:53:56;;;;;;;3.17;2.97;;;34.90;99.90;;;;;;5015380;28;20473;-84
2023/03/19 08:56:24;;;;;;;3.27;3.00;;;33.40;99.90;;;;;;5020051;28;20468;-85
2023/03/19 08:58:54;;;;;;;2.90;2.67;;;32.00;99.90;;;;;;5028593;28;20202;-85
2023/03/19 09:01:30;;;;;;;3.03;2.77;;;33.80;99.90;;;;;;5027355;28;20468;-85
2023/03/19 09:04:00;;;;;;;3.03;2.73;;;34.00;99.90;;;;;;5026018;28;20814;-84
2023/03/19 09:06:44;;;;;;;2.93;2.73;;;34.90;99.90;;;;;;5018417;28;20461;-85
2023/03/19 09:09:29;;;;;;;3.00;2.50;;;36.70;99.90;;;;;;5016606;28;20445;-85
2023/03/19 09:19:41;;;;;;;3.43;3.23;;;34.20;99.90;;;;;;5010031;28;20446;-84
2023/03/19 09:29:12;;;;;;;;;;;;;;;;;;;;;
2023/03/19 09:31:59;;;;;;;4.00;3.60;;;26.10;99.90;;;;;;5006140;28;20930;-84
2023/03/19 09:34:57;;;;;;;4.03;3.63;;;24.70;99.90;;;;;;5025159;28;20680;-81
2023/03/19 09:37:23;;;;;;;4.80;4.03;;;23.70;99.90;;;;;;5007804;28;20488;-83
2023/03/19 09:43:44;;;;;;;;;;;;;;;;;;;;;
2023/03/19 09:47:12;;;;;;;4.70;4.30;;;21.80;99.90;;;;;;5021702;28;20468;-84
2023/03/19 09:53:28;;;;;;;4.40;4.00;;;22.30;99.90;;;;;;5010978;28;20986;-84
2023/03/19 10:12:36;;;;;;;4.30;4.00;;;28.60;99.90;;;;;;5013035;28;20461;-84
2023/03/19 10:15:31;;;;;;;3.50;3.20;;;26.40;99.90;;;;;;5000386;28;20493;-84
2023/03/19 10:18:30;;;;;;;3.97;3.57;;;24.60;99.90;;;;;;5015252;28;20433;-84
2023/03/19 10:21:45;;;;;;;;;;;;;;;;;;;;;
2023/03/19 10:24:30;;;;;;;4.67;4.27;;;21.60;99.90;;;;;;5021257;28;20497;-84
2023/03/19 10:27:00;;;;;;;4.40;4.00;;;20.50;99.90;;;;;;5002205;28;20460;-83
2023/03/19 10:29:28;;;;;;;5.10;4.33;;;19.80;99.90;;;;;;5025086;28;20516;-84
2023/03/19 10:32:18;;;;;;;;;;;;;;;;;;;;;
2023/03/19 10:39:06;;;;;;;;;;;;;;;;;;;;;
2023/03/19 10:41:40;;;;;;;6.07;5.30;;;18.10;99.90;;;;;;5015378;28;20455;-82
2023/03/19 10:51:06;;;;;;;8.07;5.70;;;17.50;99.90;;;;;;5010091;28;20467;-83
2023/03/19 10:54:05;;;;;;;;;;;;;;;;;;;;;
2023/03/19 11:06:49;;;;;;;5.70;3.90;;;17.10;99.90;;;;;;4984824;28;20503;-83
2023/03/19 11:12:53;;;;;;;4.47;4.00;;;17.30;99.90;;;;;;5011969;28;20514;-84
2023/03/19 11:15:25;;;;;;;4.87;4.40;;;17.50;99.90;;;;;;5003291;28;20463;-83
2023/03/19 11:18:08;;;;;;;4.73;4.20;;;17.90;99.90;;;;;;5013849;28;20476;-83
2023/03/19 11:21:00;;;;;;;4.10;3.30;;;18.50;99.90;;;;;;5021640;28;20459;-83
2023/03/19 11:24:19;;;;;;;;;;;;;;;;;;;;;
2023/03/19 11:27:49;;;;;;;4.33;3.63;;;20.60;99.90;;;;;;5014013;28;20494;-82
2023/03/19 11:40:36;;;;;;;4.30;3.30;;;21.20;99.90;;;;;;5015221;28;20434;-83
2023/03/19 11:43:42;;;;;;;;;;;;;;;;;;;;;
2023/03/19 11:46:52;;;;;;;;;;;;;;;;;;;;;
2023/03/19 11:53:18;;;;;;;4.97;3.80;;;25.40;99.90;;;;;;4934191;29;20517;-84
2023/03/19 11:55:58;;;;;;;3.67;3.37;;;27.20;99.90;;;;;;4939614;29;20457;-85
2023/03/19 11:58:37;;;;;;;2.80;2.60;;;27.80;99.90;;;;;;5017538;28;20451;-85
2023/03/19 12:04:51;;;;;;;3.40;2.60;;;28.60;99.90;;;;;;5004491;28;20578;-86
2023/03/19 12:07:34;;;;;;;3.00;2.80;;;29.00;99.90;;;;;;5014919;28;20468;-84
2023/03/19 12:10:19;;;;;;;4.70;3.10;;;29.60;99.90;;;;;;5014120;28;20438;-85
2023/03/19 12:13:27;;;;;;;3.50;3.20;;;29.30;99.90;;;;;;5013847;28;20450;-85
2023/03/19 12:16:25;;;;;;;4.20;2.70;;;28.80;99.90;;;;;;5021111;28;20426;-85
2023/03/19 12:19:02;;;;;;;3.30;3.00;;;29.30;99.90;;;;;;5018942;28;20446;-84
2023/03/19 12:21:45;;;;;;;4.40;3.90;;;28.40;99.90;;;;;;5013713;28;20470;-84
2023/03/19 12:24:39;;;;;;;4.30;3.90;;;27.10;99.90;;;;;;5009799;28;20448;-84
2023/03/19 12:27:33;;;;;;;4.50;3.87;;;25.90;99.90;;;;;;5016457;28;20467;-84
2023/03/19 12:30:01;;;;;;;4.63;4.23;;;24.50;99.90;;;;;;5023642;28;20440;-83
2023/03/19 12:32:54;;;;;;;4.70;4.07;;;23.60;99.90;;;;;;5019653;28;20462;-81
2023/03/19 12:35:34;;;;;;;4.17;3.77;;;23.00;99.90;;;;;;5000635;28;20882;-83
2023/03/19 12:38:04;;;;;;;4.93;4.43;;;22.50;99.90;;;;;;5019779;28;20455;-83
2023/03/19 12:40:35;;;;;;;5.57;4.97;;;22.00;99.90;;;;;;5019511;28;20438;-83
2023/03/19 12:43:08;;;;;;;6.60;5.60;;;21.60;99.90;;;;;;5018914;28;20453;-83
2023/03/19 12:45:58;;;;;;;5.60;5.00;;;21.40;99.90;;;;;;5024019;28;20443;-84
2023/03/19 12:48:47;;;;;;;;;;;;;;;;;;;;;
2023/03/19 12:54:26;;;;;;;5.70;5.20;;;25.50;99.90;;;;;;5011528;28;20517;-83
2023/03/19 12:57:11;;;;;;;4.67;4.27;;;26.60;99.90;;;;;;5017388;28;20521;-83
2023/03/19 13:00:00;;;;;;;3.90;3.60;;;27.20;99.90;;;;;;5016232;28;20442;-82
2023/03/19 13:02:42;;;;;;;3.73;3.37;;;27.80;99.90;;;;;;5016722;28;20622;-82
2023/03/19 13:05:21;;;;;;;3.10;2.80;;;28.10;99.90;;;;;;5001001;28;20458;-85
2023/03/19 13:08:20;;;;;;;2.37;2.17;;;28.10;99.90;;;;;;5020578;28;20476;-84
2023/03/19 13:10:49;;;;;;;2.40;2.20;;;28.10;99.90;;;;;;5021406;28;20453;-84
2023/03/19 13:13:31;;;;;;;3.37;2.90;;;28.00;99.90;;;;;;5015705;28;20435;-84
2023/03/19 13:16:09;;;;;;;3.20;2.90;;;27.90;99.90;;;;;;5015396;28;20453;-84
2023/03/19 13:18:38;;;;;;;4.93;2.77;;;26.90;99.90;;;;;;5004119;28;20808;-85
2023/03/19 13:21:40;;;;;;;2.97;2.60;;;25.60;99.90;;;;;;5017987;28;20485;-83
2023/03/19 13:24:31;;;;;;;3.63;2.40;;;24.50;99.90;;;;;;4965283;28;20448;-84
2023/03/19 13:27:00;;;;;;;3.13;2.17;;;24.00;99.90;;;;;;5023362;28;20446;-84
2023/03/19 13:29:35;;;;;;;2.50;2.10;;;23.60;99.90;;;;;;5014183;28;20420;-83
2023/03/19 13:32:05;;;;;;;2.20;1.90;;;23.40;99.90;;;;;;4998139;28;20460;-83
2023/03/19 13:34:35;;;;;;;2.47;2.20;;;23.30;99.90;;;;;;5018434;28;20437;-82
2023/03/19 13:37:20;;;;;;;3.00;2.40;;;23.80;99.90;;;;;;5018375;28;20434;-83
2023/03/19 13:39:47;;;;;;;2.70;2.20;;;25.00;99.90;;;;;;5014365;28;20422;-83
2023/03/19 13:42:41;;;;;;;2.40;2.20;;;26.00;99.90;;;;;;5014758;28;20466;-83
2023/03/19 13:45:19;;;;;;;2.70;2.20;;;26.80;99.90;;;;;;5026082;28;20463;-84
2023/03/19 13:47:49;;;;;;;2.93;2.10;;;27.00;99.90;;;;;;5022060;28;20453;-83
2023/03/19 13:50:18;;;;;;;2.73;2.00;;;26.50;99.90;;;;;;5025411;28;20470;-82
2023/03/19 13:52:51;;;;;;;4.77;2.50;;;25.70;99.90;;;;;;5018199;28;20456;-84
2023/03/19 13:55:43;;;;;;;2.53;2.10;;;25.00;99.90;;;;;;5019639;28;20436;-83
2023/03/19 13:58:16;;;;;;;1.80;1.50;;;24.50;99.90;;;;;;5022044;28;20444;-84
2023/03/19 14:00:42;;;;;;;2.87;1.47;;;23.90;99.90;;;;;;5020962;28;20431;-82
2023/03/19 14:03:34;;;;;;;5.83;1.93;;;23.40;99.90;;;;;;5014799;28;20530;-82
2023/03/19 14:06:00;;;;;;;2.40;1.67;;;23.00;99.90;;;;;;5026619;28;20195;-82
2023/03/19 14:08:41;;;;;;;1.70;1.40;;;22.60;99.90;;;;;;5019242;28;20469;-83
2023/03/19 14:11:07;;;;;;;2.43;0.97;;;22.30;99.90;;;;;;5020442;28;20797;-81
2023/03/19 14:13:39;;;;;;;1.40;0.90;;;21.90;99.90;;;;;;5031016;28;20457;-82
2023/03/19 14:16:07;;;;;;;2.27;0.60;;;21.60;99.90;;;;;;5018732;28;20180;-80
2023/03/19 14:18:38;;;;;;;1.73;1.00;;;21.40;99.90;;;;;;5016254;28;20443;-82
2023/03/19 14:21:28;;;;;;;1.70;0.70;;;21.20;99.90;;;;;;5015785;28;20485;-84
2023/03/19 14:23:55;;;;;;;2.13;0.70;;;21.10;99.90;;;;;;5024564;28;20456;-83
2023/03/19 14:26:24;;;;;;;1.20;0.70;;;21.00;99.90;;;;;;5014406;28;20449;-82
2023/03/19 14:28:56;;;;;;;1.70;1.10;;;21.00;99.90;;;;;;5027757;28;20472;-81
2023/03/19 14:31:50;;;;;;;3.07;1.40;;;20.90;99.90;;;;;;5020658;28;20452;-84
2023/03/19 14:34:25;;;;;;;1.67;1.20;;;20.90;99.90;;;;;;4996633;28;20438;-83
2023/03/19 14:37:17;;;;;;;1.90;0.73;;;20.80;99.90;;;;;;5015056;28;20413;-80
2023/03/19 14:39:55;;;;;;;3.00;0.90;;;20.70;99.90;;;;;;5024516;28;20454;-82
2023/03/19 14:42:29;;;;;;;1.67;0.80;;;20.60;99.90;;;;;;5012169;28;20528;-81
2023/03/19 14:45:33;;;;;;;2.30;0.70;;;20.40;99.90;;;;;;5019916;28;20433;-84
2023/03/19 14:48:24;;;;;;;1.53;0.60;;;20.20;99.90;;;;;;4995096;28;20489;-82
2023/03/19 14:51:11;;;;;;;1.90;0.70;;;20.10;99.90;;;;;;5010993;28;20454;-83
2023/03/19 14:54:00;;;;;;;1.10;0.63;;;20.00;99.90;;;;;;5018405;28;20436;-83
2023/03/19 14:56:31;;;;;;;1.27;0.70;;;19.90;99.90;;;;;;5016100;28;20787;-82
2023/03/19 14:59:06;;;;;;;2.43;0.90;;;19.80;99.90;;;;;;5008889;28;20471;-83
2023/03/19 15:01:39;;;;;;;1.30;0.87;;;19.70;99.90;;;;;;5003735;28;20522;-82
2023/03/19 15:04:26;;;;;;;2.90;1.30;;;19.50;99.90;;;;;;5021032;28;20443;-82
2023/03/19 15:13:51;;;;;;;2.40;1.20;;;19.20;99.90;;;;;;5021164;28;20449;-84
2023/03/19 15:16:25;;;;;;;2.33;1.73;;;19.10;99.90;;;;;;4943199;28;20501;-84
2023/03/19 15:18:53;;;;;;;3.87;2.30;;;19.10;99.90;;;;;;5016846;28;20446;-83
2023/03/19 15:21:21;;;;;;;4.70;2.87;;;19.10;99.90;;;;;;5011324;28;20460;-83
2023/03/19 15:23:49;;;;;;;6.00;3.10;;;19.10;99.90;;;;;;5024134;28;20515;-82
2023/03/19 15:26:27;;;;;;;3.37;2.93;;;19.00;99.90;;;;;;5017305;28;20443;-83
2023/03/19 15:29:00;;;;;;;5.33;3.43;;;19.10;99.90;;;;;;4992902;28;20477;-85
2023/03/19 15:31:43;;;;;;;5.63;3.73;;;19.20;99.90;;;;;;5014357;28;20472;-84
2023/03/19 15:34:38;;;;;;;;;;;;;;;;;;;;;
2023/03/19 15:37:57;;;;;;;;;;;;;;;;;;;;;
2023/03/19 15:40:28;;;;;;;5.03;3.00;;;19.00;99.90;;;;;;5015486;28;20500;-82
2023/03/19 15:42:55;;;;;;;3.10;2.67;;;18.90;99.90;;;;;;5018139;28;20543;-83
2023/03/19 15:45:23;;;;;;;3.87;3.00;;;18.70;99.90;;;;;;5014612;28;20426;-84
2023/03/19 15:48:07;;;;;;;3.40;3.00;;;18.70;99.90;;;;;;5024378;28;20469;-82
2023/03/19 15:50:36;;;;;;;5.37;3.43;;;18.50;99.90;;;;;;5011194;28;20641;-83
2023/03/19 15:53:07;;;;;;;5.20;3.47;;;18.30;99.90;;;;;;5016896;28;20453;-82
2023/03/19 15:55:35;;;;;;;4.57;2.77;;;18.20;99.90;;;;;;5009588;28;20441;-81
2023/03/19 15:58:50;;;;;;;6.20;4.07;;;18.10;99.90;;;;;;5006598;28;20474;-85
2023/03/19 16:01:48;;;;;;;;;;;;;;;;;;;;;
2023/03/19 16:04:34;;;;;;;3.50;2.30;;;17.70;99.90;;;;;;5008109;28;20469;-84
2023/03/19 16:07:10;;;;;;;;;;;;;;;;;;;;;
2023/03/19 16:13:16;;;;;;;6.57;3.77;;;17.40;99.90;;;;;;5011430;28;20486;-83
2023/03/19 16:28:58;;;;;;;7.07;4.13;;;17.00;99.90;;;;;;5013080;28;20465;-84
2023/03/19 16:31:28;;;;;;;6.37;4.33;;;17.00;99.90;;;;;;5017979;28;20440;-81
2023/03/19 16:33:55;;;;;;;7.13;4.63;;;16.90;99.90;;;;;;5012875;28;20514;-84
2023/03/19 16:36:32;;;;;;;4.30;3.73;;;16.80;99.90;;;;;;5006723;28;20734;-83
2023/03/19 16:42:56;;;;;;;7.93;5.07;;;16.60;99.90;;;;;;5012349;28;20465;-84
2023/03/19 16:48:48;;;;;;;5.30;4.23;;;16.40;99.90;;;;;;5006015;28;20462;-84
2023/03/19 16:51:19;;;;;;;4.90;4.20;;;16.30;99.90;;;;;;5000252;28;20486;-84
2023/03/19 16:53:45;;;;;;;5.10;3.50;;;16.20;99.90;;;;;;5015058;28;20174;-83
2023/03/19 16:59:51;;;;;;;;;;;;;;;;;;;;;
2023/03/19 17:03:13;;;;;;;5.00;3.50;;;16.20;99.90;;;;;;5016982;28;20487;-83
2023/03/19 17:16:36;;;;;;;6.50;4.03;;;15.80;99.90;;;;;;5013159;28;20445;-83
2023/03/19 17:31:51;;;;;;;5.80;3.53;;;15.60;99.90;;;;;;5001354;28;20462;-83
2023/03/19 17:34:22;;;;;;;5.83;3.30;;;15.50;99.90;;;;;;5023819;28;20451;-84
2023/03/19 17:36:51;;;;;;;4.20;2.90;;;15.50;99.90;;;;;;5029422;28;20437;-84
2023/03/19 17:39:33;;;;;;;4.60;3.60;;;15.40;99.90;;;;;;5023152;28;20547;-81
2023/03/19 17:41:59;;;;;;;5.83;3.83;;;15.40;99.90;;;;;;5022715;28;20551;-83
2023/03/19 17:44:27;;;;;;;6.43;3.23;;;15.30;99.90;;;;;;5021917;28;20935;-84
2023/03/19 17:53:20;;;;;;;5.87;5.10;;;15.10;1.00;;;;;;5008817;28;20875;-82
2023/03/19 17:59:47;;;;;;;16.80;5.30;;;15.00;1.00;;;;;;5015402;28;20445;-81
2023/03/19 18:06:09;;;;;;;;;;;;;;;;;;;;;
2023/03/19 18:09:24;;;;;;;8.87;4.60;;;14.60;1.00;;;;;;5020069;28;20954;-82
2023/03/19 18:21:34;;;;;;;11.50;10.40;;;14.30;99.90;;;;;;5005728;28;20445;-82
2023/03/19 18:27:43;;;;;;;9.13;5.60;;;14.20;99.90;;;;;;5009309;28;20475;-82
2023/03/19 18:34:25;;;;;;;;;;;;;;;;;;;;;
2023/03/19 18:36:42;;;;;;;6.73;5.37;;;14.10;99.90;;;;;;5011549;28;20534;-83
2023/03/19 18:39:44;;;;;;;;;;;;;;;;;;;;;
2023/03/19 18:42:16;;;;;;;12.73;8.23;;;14.00;1.00;;;;;;5022891;28;20540;-83
2023/03/19 18:45:02;;;;;;;12.50;8.70;;;13.90;1.00;;;;;;5003172;28;20449;-82
2023/03/19 18:51:18;;;;;;;12.03;8.70;;;13.70;1.00;;;;;;5008280;28;20437;-81
2023/03/19 18:54:06;;;;;;;15.60;11.23;;;13.60;1.00;;;;;;5020214;28;20437;-82
2023/03/19 19:03:20;;;;;;;20.93;13.80;;;13.40;99.90;;;;;;5013054;28;20533;-83
2023/03/19 19:05:48;;;;;;;26.47;14.90;;;13.40;1.00;;;;;;5003631;28;20798;-84
2023/03/19 19:08:16;;;;;;;22.07;14.73;;;13.40;1.00;;;;;;5007023;28;20450;-83
2023/03/19 19:10:49;;;;;;;27.60;18.70;;;13.40;1.00;;;;;;5022216;28;20428;-80
2023/03/19 19:13:34;;;;;;;;;;;;;;;;;;;;;
2023/03/19 19:16:11;;;;;;;25.13;17.70;;;13.40;1.00;;;;;;5012186;28;20501;-82
2023/03/19 19:18:39;;;;;;;31.20;19.00;;;13.40;44.90;;;;;;5010578;28;20442;-81
2023/03/19 19:21:05;;;;;;;28.67;18.87;;;13.40;99.90;;;;;;5017612;28;20462;-83
2023/03/19 19:23:40;;;;;;;;;;;;;;;;;;;;;
2023/03/19 19:26:12;;;;;;;25.20;18.13;;;13.30;1.00;;;;;;5017395;28;20266;-82
2023/03/19 19:28:41;;;;;;;28.40;19.60;;;13.30;1.00;;;;;;5015673;28;20476;-82
2023/03/19 19:31:24;;;;;;;30.97;21.70;;;13.20;99.90;;;;;;4997921;28;20469;-82
2023/03/19 19:33:50;;;;;;;35.90;21.20;;;13.20;99.90;;;;;;5009657;28;20441;-82
2023/03/19 19:36:19;;;;;;;38.83;21.20;;;13.10;1.00;;;;;;4994182;28;20434;-80
2023/03/19 19:38:45;;;;;;;34.63;21.90;;;13.00;18.60;;;;;;5016642;28;20496;-81
2023/03/19 19:41:21;;;;;;;41.63;23.67;;;12.90;99.90;;;;;;5011834;28;20465;-83
2023/03/19 19:43:58;;;;;;;33.53;22.67;;;12.90;99.90;;;;;;5000052;28;20472;-83
2023/03/19 19:46:34;;;;;;;31.23;21.10;;;12.90;1.00;;;;;;5013108;28;20504;-84
2023/03/19 19:49:03;;;;;;;33.57;21.30;;;12.80;1.00;;;;;;4990005;28;20453;-83
2023/03/19 19:54:35;;;;;;;35.23;22.37;;;12.80;1.00;;;;;;5007942;28;20422;-84
2023/03/19 19:57:21;;;;;;;;;;;;;;;;;;;;;
2023/03/19 20:03:53;;;;;;;;;;;;;;;;;;;;;
2023/03/19 20:06:51;;;;;;;34.80;20.17;;;12.50;1.00;;;;;;5010811;28;20525;-84
2023/03/19 20:13:31;;;;;;;;;;;;;;;;;;;;;
2023/03/19 20:20:01;;;;;;;;;;;;;;;;;;;;;
2023/03/19 20:22:29;;;;;;;26.03;18.27;;;12.20;1.00;;;;;;5006858;28;20522;-83
2023/03/19 20:24:58;;;;;;;22.20;17.37;;;12.00;1.00;;;;;;5006202;28;20465;-83
2023/03/19 20:27:31;;;;;;;20.87;16.10;;;11.90;99.90;;;;;;5013552;28;20458;-83
2023/03/19 20:30:14;;;;;;;27.00;18.83;;;11.90;1.00;;;;;;5016463;28;20437;-83
2023/03/19 20:32:42;;;;;;;22.70;14.93;;;11.80;99.90;;;;;;5014232;28;20462;-84
2023/03/19 20:35:37;;;;;;;23.23;15.17;;;11.80;94.80;;;;;;4995281;28;20441;-84
2023/03/19 20:38:05;;;;;;;22.80;16.70;;;11.70;1.00;;;;;;5014384;28;20480;-83
2023/03/19 20:40:35;;;;;;;22.23;14.53;;;11.60;1.00;;;;;;5016212;28;20870;-84
2023/03/19 20:43:04;;;;;;;17.23;13.27;;;11.50;99.90;;;;;;5021008;28;20438;-84
2023/03/19 20:45:43;;;;;;;22.10;13.63;;;11.40;99.90;;;;;;5010687;28;20444;-83
2023/03/19 20:48:15;;;;;;;21.60;13.60;;;11.40;99.90;;;;;;5008717;28;20560;-83
2023/03/19 20:50:46;;;;;;;18.33;13.50;;;11.40;99.90;;;;;;4995094;28;20461;-84
2023/03/19 20:53:19;;;;;;;20.17;12.90;;;11.40;99.90;;;;;;4991096;28;20442;-84
2023/03/19 20:55:56;;;;;;;21.00;13.67;;;11.40;21.60;;;;;;5013436;28;20441;-83
2023/03/19 20:58:28;;;;;;;20.77;13.67;;;11.40;1.00;;;;;;5012576;28;20885;-83
2023/03/19 21:00:59;;;;;;;18.47;12.90;;;11.50;1.00;;;;;;5004151;28;20849;-84
2023/03/19 21:03:27;;;;;;;22.57;12.10;;;11.50;99.90;;;;;;5013638;28;20511;-82
2023/03/19 21:06:01;;;;;;;19.90;11.03;;;11.50;99.90;;;;;;5010070;28;20457;-85
2023/03/19 21:08:33;;;;;;;14.87;11.00;;;11.40;99.90;;;;;;5008967;28;20481;-83
2023/03/19 21:11:02;;;;;;;16.43;11.80;;;11.40;99.90;;;;;;5016067;28;20484;-83
2023/03/19 21:13:40;;;;;;;20.13;11.17;;;11.40;93.20;;;;;;5010799;28;20520;-83
2023/03/19 21:16:18;;;;;;;18.70;12.17;;;11.30;97.80;;;;;;5007588;28;20440;-84
2023/03/19 21:18:44;;;;;;;13.93;10.70;;;11.30;86.80;;;;;;5007242;28;20450;-85
2023/03/19 21:21:17;;;;;;;15.03;11.77;;;11.30;1.00;;;;;;5012888;28;20504;-83
2023/03/19 21:24:05;;;;;;;17.73;12.10;;;11.20;1.00;;;;;;5015809;28;20516;-85
2023/03/19 21:34:02;;;;;;;;;;;;;;;;;;;;;
2023/03/19 21:36:54;;;;;;;16.97;11.83;;;11.10;37.30;;;;;;5005940;28;20516;-83
2023/03/19 21:39:29;;;;;;;;;;;;;;;;;;;;;
2023/03/19 21:44:43;;;;;;;17.77;12.33;;;10.90;99.90;;;;;;4993572;28;20964;-86
2023/03/19 21:47:15;;;;;;;17.03;13.00;;;11.00;99.90;;;;;;5000538;28;20438;-83
2023/03/19 21:49:43;;;;;;;20.27;13.03;;;11.00;99.90;;;;;;5012099;28;20540;-82
2023/03/19 21:52:21;;;;;;;19.87;13.50;;;11.00;99.90;;;;;;5010031;28;20492;-84
2023/03/19 21:55:00;;;;;;;22.57;13.83;;;11.00;1.00;;;;;;5002974;28;20446;-83
2023/03/19 21:57:29;;;;;;;18.57;13.23;;;11.00;1.00;;;;;;5018875;28;20464;-88
2023/03/19 21:59:57;;;;;;;19.53;12.03;;;11.10;1.00;;;;;;5013656;28;20435;-85
2023/03/19 22:02:25;;;;;;;22.33;13.47;;;11.10;1.00;;;;;;5024573;28;20493;-83
2023/03/19 22:04:55;;;;;;;19.50;13.90;;;11.10;99.90;;;;;;5020938;28;20468;-83
2023/03/19 22:07:23;;;;;;;18.90;13.13;;;11.20;99.90;;;;;;5023582;28;20426;-85
2023/03/19 22:09:51;;;;;;;22.33;13.63;;;11.20;99.90;;;;;;5021357;28;20422;-86
2023/03/19 22:12:26;;;;;;;19.40;12.27;;;11.20;44.00;;;;;;5011048;28;20469;-83
2023/03/19 22:14:52;;;;;;;16.20;12.00;;;11.20;1.00;;;;;;5022417;28;20445;-86
2023/03/19 22:17:21;;;;;;;19.90;14.17;;;11.20;1.00;;;;;;5020488;28;20446;-84
2023/03/19 22:19:49;;;;;;;18.70;13.40;;;11.30;1.00;;;;;;5015519;28;20445;-84
2023/03/19 22:22:15;;;;;;;20.57;13.60;;;11.30;1.00;;;;;;5017048;28;20651;-85
2023/03/19 22:24:41;;;;;;;21.07;13.37;;;11.40;1.00;;;;;;5017732;28;20441;-84
2023/03/19 22:27:17;;;;;;;21.60;14.30;;;11.40;1.00;;;;;;5021716;28;20195;-82
2023/03/19 22:29:44;;;;;;;23.63;15.63;;;11.40;1.00;;;;;;4997007;28;20194;-81
2023/03/19 22:32:15;;;;;;;23.17;16.07;;;11.40;1.00;;;;;;5021013;28;20480;-84
2023/03/19 22:34:48;;;;;;;18.97;14.43;;;11.40;1.00;;;;;;4997105;28;20423;-84
2023/03/19 22:37:34;;;;;;;21.80;15.27;;;11.40;1.00;;;;;;5009581;28;20472;-83
2023/03/19 22:40:02;;;;;;;20.83;14.57;;;11.40;1.00;;;;;;5007195;28;20445;-82
2023/03/19 22:42:28;;;;;;;26.23;15.90;;;11.40;1.00;;;;;;5017524;28;20552;-83
2023/03/19 22:44:56;;;;;;;25.30;15.70;;;11.40;1.00;;;;;;5023932;28;20445;-83
2023/03/19 22:47:25;;;;;;;24.53;16.63;;;11.40;1.00;;;;;;5018722;28;20207;-82
2023/03/19 22:49:52;;;;;;;22.43;16.20;;;11.40;1.00;;;;;;5015519;28;20461;-83
2023/03/19 22:52:18;;;;;;;24.43;15.80;;;11.40;1.00;;;;;;5016687;28;20478;-81
2023/03/19 22:54:52;;;;;;;23.00;16.63;;;11.40;1.00;;;;;;5000778;28;20454;-84
2023/03/19 22:57:20;;;;;;;21.20;14.60;;;11.40;1.00;;;;;;5023778;28;20207;-84
2023/03/19 22:59:46;;;;;;;22.53;15.77;;;11.40;1.00;;;;;;5027318;28;20429;-84